sensor_id;sensor_type;location;lat;lon;timestamp;pressure;altitude;pressure_sealevel;temperature;humidity
68656;BME280;55638;51.122;13.606;2022-12-26T00:01:24;99740.75;;;9.20;59.43
68656;BME280;55638;51.122;13.606;2022-12-26T00:02:56;99751.53;;;9.20;59.78
68656;BME280;55638;51.122;13.606;2022-12-26T00:04:28;99749.66;;;9.21;59.92
68656;BME280;55638;51.122;13.606;2022-12-26T00:06:22;99761.13;;;9.23;59.96
68656;BME280;55638;51.122;13.606;2022-12-26T00:07:55;99781.00;;;9.22;60.18
68656;BME280;55638;51.122;13.606;2022-12-26T00:09:26;99764.84;;;9.22;60.09
68656;BME280;55638;51.122;13.606;2022-12-26T00:10:58;99758.59;;;9.21;60.17
68656;BME280;55638;51.122;13.606;2022-12-26T00:12:30;99757.75;;;9.21;59.96
68656;BME280;55638;51.122;13.606;2022-12-26T00:14:06;99748.38;;;9.15;59.40
68656;BME280;55638;51.122;13.606;2022-12-26T00:15:41;99760.00;;;9.16;59.42
68656;BME280;55638;51.122;13.606;2022-12-26T00:17:13;99763.81;;;9.13;59.83
68656;BME280;55638;51.122;13.606;2022-12-26T00:18:45;99774.72;;;9.12;59.88
68656;BME280;55638;51.122;13.606;2022-12-26T00:20:17;99782.94;;;9.10;59.95
68656;BME280;55638;51.122;13.606;2022-12-26T00:21:49;99775.13;;;9.07;59.94
68656;BME280;55638;51.122;13.606;2022-12-26T00:23:20;99773.59;;;9.05;60.04
68656;BME280;55638;51.122;13.606;2022-12-26T00:24:52;99778.41;;;9.01;60.20
68656;BME280;55638;51.122;13.606;2022-12-26T00:26:27;99777.78;;;8.97;59.90
68656;BME280;55638;51.122;13.606;2022-12-26T00:28:00;99777.22;;;8.94;60.05
68656;BME280;55638;51.122;13.606;2022-12-26T00:29:31;99780.16;;;8.91;60.29
68656;BME280;55638;51.122;13.606;2022-12-26T00:31:14;99766.28;;;8.86;58.40
68656;BME280;55638;51.122;13.606;2022-12-26T00:32:46;99766.28;;;8.86;60.34
68656;BME280;55638;51.122;13.606;2022-12-26T00:34:17;99762.84;;;8.84;60.33
68656;BME280;55638;51.122;13.606;2022-12-26T00:35:49;99758.00;;;8.78;60.34
68656;BME280;55638;51.122;13.606;2022-12-26T00:37:21;99761.84;;;8.75;60.24
68656;BME280;55638;51.122;13.606;2022-12-26T00:38:53;99773.56;;;8.74;60.53
68656;BME280;55638;51.122;13.606;2022-12-26T00:40:24;99772.16;;;8.70;60.36
68656;BME280;55638;51.122;13.606;2022-12-26T00:41:56;99764.06;;;8.70;60.61
68656;BME280;55638;51.122;13.606;2022-12-26T00:43:28;99771.16;;;8.71;60.90
68656;BME280;55638;51.122;13.606;2022-12-26T00:45:01;99770.31;;;8.70;61.01
68656;BME280;55638;51.122;13.606;2022-12-26T00:46:34;99770.19;;;8.72;61.16
68656;BME280;55638;51.122;13.606;2022-12-26T00:48:06;99760.38;;;8.71;61.14
68656;BME280;55638;51.122;13.606;2022-12-26T00:49:37;99754.16;;;8.70;61.03
68656;BME280;55638;51.122;13.606;2022-12-26T00:51:29;99743.38;;;8.70;61.04
68656;BME280;55638;51.122;13.606;2022-12-26T00:53:01;99758.53;;;8.71;61.20
68656;BME280;55638;51.122;13.606;2022-12-26T00:54:33;99762.13;;;8.72;61.09
68656;BME280;55638;51.122;13.606;2022-12-26T00:56:05;99753.88;;;8.73;61.09
68656;BME280;55638;51.122;13.606;2022-12-26T00:57:37;99740.69;;;8.70;61.10
68656;BME280;55638;51.122;13.606;2022-12-26T00:59:09;99745.97;;;8.72;61.08
68656;BME280;55638;51.122;13.606;2022-12-26T01:00:41;99736.03;;;8.72;61.10
68656;BME280;55638;51.122;13.606;2022-12-26T01:02:12;99739.56;;;8.73;61.14
68656;BME280;55638;51.122;13.606;2022-12-26T01:04:03;99755.56;;;8.74;61.08
68656;BME280;55638;51.122;13.606;2022-12-26T01:05:39;99750.34;;;8.73;59.99
68656;BME280;55638;51.122;13.606;2022-12-26T01:07:11;99750.19;;;8.74;60.83
68656;BME280;55638;51.122;13.606;2022-12-26T01:08:45;99754.63;;;8.75;60.90
68656;BME280;55638;51.122;13.606;2022-12-26T01:10:17;99765.38;;;8.75;60.90
68656;BME280;55638;51.122;13.606;2022-12-26T01:11:48;99759.16;;;8.75;60.77
68656;BME280;55638;51.122;13.606;2022-12-26T01:13:20;99768.91;;;8.76;60.98
68656;BME280;55638;51.122;13.606;2022-12-26T01:14:55;99760.13;;;8.74;60.44
68656;BME280;55638;51.122;13.606;2022-12-26T01:16:27;99767.34;;;8.73;60.84
68656;BME280;55638;51.122;13.606;2022-12-26T01:17:59;99751.19;;;8.73;61.06
68656;BME280;55638;51.122;13.606;2022-12-26T01:19:31;99754.88;;;8.72;61.06
68656;BME280;55638;51.122;13.606;2022-12-26T01:21:06;99765.66;;;8.72;60.90
68656;BME280;55638;51.122;13.606;2022-12-26T01:22:38;99758.53;;;8.71;61.21
68656;BME280;55638;51.122;13.606;2022-12-26T01:24:10;99758.41;;;8.73;61.29
68656;BME280;55638;51.122;13.606;2022-12-26T01:25:42;99754.72;;;8.74;61.32
68656;BME280;55638;51.122;13.606;2022-12-26T01:27:34;99769.19;;;8.73;61.17
68656;BME280;55638;51.122;13.606;2022-12-26T01:29:06;99765.38;;;8.75;61.42
68656;BME280;55638;51.122;13.606;2022-12-26T01:30:37;99759.28;;;8.73;61.24
68656;BME280;55638;51.122;13.606;2022-12-26T01:32:09;99757.31;;;8.75;61.39
68656;BME280;55638;51.122;13.606;2022-12-26T01:33:41;99754.47;;;8.77;61.51
68656;BME280;55638;51.122;13.606;2022-12-26T01:35:13;99760.44;;;8.81;61.68
68656;BME280;55638;51.122;13.606;2022-12-26T01:36:44;99762.16;;;8.82;61.65
68656;BME280;55638;51.122;13.606;2022-12-26T01:38:17;99753.81;;;8.85;61.80
68656;BME280;55638;51.122;13.606;2022-12-26T01:39:49;99754.78;;;8.84;61.75
68656;BME280;55638;51.122;13.606;2022-12-26T01:41:22;99765.00;;;8.90;61.90
68656;BME280;55638;51.122;13.606;2022-12-26T01:42:54;99753.97;;;8.93;61.97
68656;BME280;55638;51.122;13.606;2022-12-26T01:46:33;99756.69;;;9.03;61.22
68656;BME280;55638;51.122;13.606;2022-12-26T01:48:19;99755.56;;;9.05;61.00
68656;BME280;55638;51.122;13.606;2022-12-26T01:49:53;99757.72;;;9.11;61.98
68656;BME280;55638;51.122;13.606;2022-12-26T01:51:28;99753.59;;;9.17;61.87
68656;BME280;55638;51.122;13.606;2022-12-26T01:54:45;99761.44;;;9.30;61.99
68656;BME280;55638;51.122;13.606;2022-12-26T01:56:28;99767.28;;;9.35;61.60
68656;BME280;55638;51.122;13.606;2022-12-26T01:58:08;99764.88;;;9.41;61.13
68656;BME280;55638;51.122;13.606;2022-12-26T01:59:41;99772.28;;;9.49;62.22
68656;BME280;55638;51.122;13.606;2022-12-26T02:01:13;99767.19;;;9.56;61.97
68656;BME280;55638;51.122;13.606;2022-12-26T02:02:45;99768.50;;;9.61;61.96
68656;BME280;55638;51.122;13.606;2022-12-26T02:04:56;99770.34;;;9.71;61.75
68656;BME280;55638;51.122;13.606;2022-12-26T02:06:48;99773.50;;;9.76;61.73
68656;BME280;55638;51.122;13.606;2022-12-26T02:08:23;99771.94;;;9.83;61.24
68656;BME280;55638;51.122;13.606;2022-12-26T02:09:57;99778.72;;;9.87;61.53
68656;BME280;55638;51.122;13.606;2022-12-26T02:11:41;99777.44;;;9.91;60.48
68656;BME280;55638;51.122;13.606;2022-12-26T02:13:16;99765.97;;;9.99;61.22
68656;BME280;55638;51.122;13.606;2022-12-26T02:14:49;99755.75;;;10.02;61.12
68656;BME280;55638;51.122;13.606;2022-12-26T02:16:21;99759.00;;;10.06;61.01
68656;BME280;55638;51.122;13.606;2022-12-26T02:17:53;99756.16;;;10.07;60.92
68656;BME280;55638;51.122;13.606;2022-12-26T02:19:45;99752.59;;;10.07;59.96
68656;BME280;55638;51.122;13.606;2022-12-26T02:31:21;99750.75;;;10.07;59.70
68656;BME280;55638;51.122;13.606;2022-12-26T02:33:14;99753.59;;;10.06;59.68
68656;BME280;55638;51.122;13.606;2022-12-26T02:44:17;99743.09;;;10.03;59.80
68656;BME280;55638;51.122;13.606;2022-12-26T02:48:46;99757.00;;;10.08;59.57
68656;BME280;55638;51.122;13.606;2022-12-26T02:50:37;99745.34;;;10.07;59.84
68656;BME280;55638;51.122;13.606;2022-12-26T02:52:48;99756.88;;;10.09;59.74
68656;BME280;55638;51.122;13.606;2022-12-26T02:55:03;99757.88;;;10.08;59.84
68656;BME280;55638;51.122;13.606;2022-12-26T02:57:02;99758.28;;;10.13;59.89
68656;BME280;55638;51.122;13.606;2022-12-26T02:59:31;99750.03;;;10.15;60.02
68656;BME280;55638;51.122;13.606;2022-12-26T03:01:32;99736.56;;;10.15;60.05
68656;BME280;55638;51.122;13.606;2022-12-26T03:03:28;99744.50;;;10.16;60.44
68656;BME280;55638;51.122;13.606;2022-12-26T03:05:26;99735.56;;;10.16;59.99
68656;BME280;55638;51.122;13.606;2022-12-26T03:07:25;99732.84;;;10.16;60.20
68656;BME280;55638;51.122;13.606;2022-12-26T03:09:21;99737.41;;;10.15;59.91
68656;BME280;55638;51.122;13.606;2022-12-26T03:11:14;99737.53;;;10.14;60.16
68656;BME280;55638;51.122;13.606;2022-12-26T03:13:27;99743.94;;;10.13;59.74
68656;BME280;55638;51.122;13.606;2022-12-26T03:15:02;99735.84;;;10.13;60.30
68656;BME280;55638;51.122;13.606;2022-12-26T03:16:35;99740.38;;;10.12;60.45
68656;BME280;55638;51.122;13.606;2022-12-26T03:18:27;99739.38;;;10.13;60.39
68656;BME280;55638;51.122;13.606;2022-12-26T03:20:27;99744.09;;;10.11;59.63
68656;BME280;55638;51.122;13.606;2022-12-26T03:22:01;99747.63;;;10.12;59.88
68656;BME280;55638;51.122;13.606;2022-12-26T03:23:54;99741.06;;;10.14;60.41
68656;BME280;55638;51.122;13.606;2022-12-26T03:25:48;99728.59;;;10.13;59.60
68656;BME280;55638;51.122;13.606;2022-12-26T03:27:41;99732.56;;;10.19;60.41
68656;BME280;55638;51.122;13.606;2022-12-26T03:29:16;99727.88;;;10.21;60.08
68656;BME280;55638;51.122;13.606;2022-12-26T03:31:10;99721.47;;;10.22;59.96
68656;BME280;55638;51.122;13.606;2022-12-26T03:32:43;99724.03;;;10.24;60.26
68656;BME280;55638;51.122;13.606;2022-12-26T03:34:15;99729.28;;;10.25;60.14
68656;BME280;55638;51.122;13.606;2022-12-26T03:35:50;99734.69;;;10.25;60.08
68656;BME280;55638;51.122;13.606;2022-12-26T03:37:26;99737.22;;;10.27;60.01
68656;BME280;55638;51.122;13.606;2022-12-26T03:42:05;99737.94;;;10.29;59.52
68656;BME280;55638;51.122;13.606;2022-12-26T03:48:28;99738.69;;;10.21;59.66
68656;BME280;55638;51.122;13.606;2022-12-26T03:50:28;99739.66;;;10.20;59.88
68656;BME280;55638;51.122;13.606;2022-12-26T03:52:35;99742.78;;;10.15;59.87
68656;BME280;55638;51.122;13.606;2022-12-26T03:54:37;99746.47;;;10.14;59.23
68656;BME280;55638;51.122;13.606;2022-12-26T03:56:34;99752.75;;;10.15;59.87
68656;BME280;55638;51.122;13.606;2022-12-26T04:00:30;99745.78;;;10.12;60.10
68656;BME280;55638;51.122;13.606;2022-12-26T04:02:24;99738.69;;;10.11;60.13
68656;BME280;55638;51.122;13.606;2022-12-26T04:04:17;99741.69;;;10.08;59.20
68656;BME280;55638;51.122;13.606;2022-12-26T04:06:15;99758.16;;;10.05;59.42
68656;BME280;55638;51.122;13.606;2022-12-26T04:08:16;99752.03;;;10.03;58.99
68656;BME280;55638;51.122;13.606;2022-12-26T04:10:13;99742.25;;;10.02;59.75
68656;BME280;55638;51.122;13.606;2022-12-26T04:12:06;99750.06;;;10.05;60.15
68656;BME280;55638;51.122;13.606;2022-12-26T04:14:18;99743.38;;;10.00;59.79
68656;BME280;55638;51.122;13.606;2022-12-26T04:16:18;99754.44;;;9.97;59.45
68656;BME280;55638;51.122;13.606;2022-12-26T04:18:17;99770.75;;;9.95;59.49
68656;BME280;55638;51.122;13.606;2022-12-26T04:22:09;99773.34;;;9.87;59.31
68656;BME280;55638;51.122;13.606;2022-12-26T04:24:10;99774.06;;;9.89;59.90
68656;BME280;55638;51.122;13.606;2022-12-26T04:26:07;99785.97;;;9.86;59.90
68656;BME280;55638;51.122;13.606;2022-12-26T04:28:00;99778.72;;;9.87;60.25
68656;BME280;55638;51.122;13.606;2022-12-26T04:29:50;99793.91;;;9.88;60.44
68656;BME280;55638;51.122;13.606;2022-12-26T04:31:59;99788.78;;;9.85;59.49
68656;BME280;55638;51.122;13.606;2022-12-26T04:33:57;99789.38;;;9.88;60.29
68656;BME280;55638;51.122;13.606;2022-12-26T04:35:51;99768.78;;;9.87;60.32
68656;BME280;55638;51.122;13.606;2022-12-26T04:37:44;99783.84;;;9.90;60.50
68656;BME280;55638;51.122;13.606;2022-12-26T04:39:37;99765.69;;;9.92;60.36
68656;BME280;55638;51.122;13.606;2022-12-26T04:41:30;99776.16;;;9.95;60.47
68656;BME280;55638;51.122;13.606;2022-12-26T04:43:22;99774.34;;;9.96;60.49
68656;BME280;55638;51.122;13.606;2022-12-26T04:45:22;99776.88;;;9.97;60.24
68656;BME280;55638;51.122;13.606;2022-12-26T04:46:54;99777.59;;;9.99;60.45
68656;BME280;55638;51.122;13.606;2022-12-26T04:48:27;99779.31;;;10.00;60.23
68656;BME280;55638;51.122;13.606;2022-12-26T04:50:17;99779.00;;;10.03;60.33
68656;BME280;55638;51.122;13.606;2022-12-26T04:51:49;99777.31;;;10.02;60.15
68656;BME280;55638;51.122;13.606;2022-12-26T04:53:21;99778.84;;;10.05;60.02
68656;BME280;55638;51.122;13.606;2022-12-26T04:54:53;99780.72;;;10.04;60.11
68656;BME280;55638;51.122;13.606;2022-12-26T04:56:25;99781.44;;;10.06;60.08
68656;BME280;55638;51.122;13.606;2022-12-26T04:57:57;99774.34;;;10.05;59.87
68656;BME280;55638;51.122;13.606;2022-12-26T04:59:30;99786.81;;;10.06;59.89
68656;BME280;55638;51.122;13.606;2022-12-26T05:01:01;99779.56;;;10.07;59.91
68656;BME280;55638;51.122;13.606;2022-12-26T05:02:53;99779.44;;;10.08;59.78
68656;BME280;55638;51.122;13.606;2022-12-26T05:04:49;99786.66;;;10.08;59.95
68656;BME280;55638;51.122;13.606;2022-12-26T05:06:40;99775.75;;;10.09;60.06
68656;BME280;55638;51.122;13.606;2022-12-26T05:08:34;99780.31;;;10.09;59.47
68656;BME280;55638;51.122;13.606;2022-12-26T05:10:26;99775.59;;;10.11;59.89
68656;BME280;55638;51.122;13.606;2022-12-26T05:11:59;99771.19;;;10.10;59.84
68656;BME280;55638;51.122;13.606;2022-12-26T05:13:31;99758.56;;;10.10;59.80
68656;BME280;55638;51.122;13.606;2022-12-26T05:15:03;99769.22;;;10.12;59.92
68656;BME280;55638;51.122;13.606;2022-12-26T05:16:35;99764.66;;;10.12;60.11
68656;BME280;55638;51.122;13.606;2022-12-26T05:18:26;99766.38;;;10.13;59.91
68656;BME280;55638;51.122;13.606;2022-12-26T05:20:16;99778.84;;;10.14;60.03
68656;BME280;55638;51.122;13.606;2022-12-26T05:22:09;99772.59;;;10.14;59.45
68656;BME280;55638;51.122;13.606;2022-12-26T05:24:00;99768.06;;;10.14;59.88
68656;BME280;55638;51.122;13.606;2022-12-26T05:25:51;99768.06;;;10.14;60.01
68656;BME280;55638;51.122;13.606;2022-12-26T05:27:42;99771.63;;;10.15;59.93
68656;BME280;55638;51.122;13.606;2022-12-26T05:29:33;99766.25;;;10.15;59.82
68656;BME280;55638;51.122;13.606;2022-12-26T05:31:05;99759.00;;;10.15;59.85
68656;BME280;55638;51.122;13.606;2022-12-26T05:32:37;99768.94;;;10.15;59.77
68656;BME280;55638;51.122;13.606;2022-12-26T05:34:27;99773.44;;;10.14;59.88
68656;BME280;55638;51.122;13.606;2022-12-26T05:35:59;99766.38;;;10.13;59.76
68656;BME280;55638;51.122;13.606;2022-12-26T05:37:31;99777.16;;;10.13;59.73
68656;BME280;55638;51.122;13.606;2022-12-26T05:39:04;99787.09;;;10.13;59.87
68656;BME280;55638;51.122;13.606;2022-12-26T05:40:36;99786.25;;;10.12;59.78
68656;BME280;55638;51.122;13.606;2022-12-26T05:42:08;99775.47;;;10.12;59.64
68656;BME280;55638;51.122;13.606;2022-12-26T05:43:39;99779.00;;;10.13;59.81
68656;BME280;55638;51.122;13.606;2022-12-26T05:45:11;99777.16;;;10.13;59.98
68656;BME280;55638;51.122;13.606;2022-12-26T05:46:43;99777.16;;;10.13;59.77
68656;BME280;55638;51.122;13.606;2022-12-26T05:48:17;99769.78;;;10.15;59.80
68656;BME280;55638;51.122;13.606;2022-12-26T05:49:49;99773.63;;;10.13;59.83
68656;BME280;55638;51.122;13.606;2022-12-26T05:51:20;99776.31;;;10.13;59.93
68656;BME280;55638;51.122;13.606;2022-12-26T05:52:52;99775.31;;;10.14;59.81
68656;BME280;55638;51.122;13.606;2022-12-26T05:54:24;99779.84;;;10.13;59.56
68656;BME280;55638;51.122;13.606;2022-12-26T05:56:07;99783.56;;;10.12;58.85
68656;BME280;55638;51.122;13.606;2022-12-26T05:57:40;99779.00;;;10.13;59.67
68656;BME280;55638;51.122;13.606;2022-12-26T05:59:12;99775.31;;;10.14;59.73
68656;BME280;55638;51.122;13.606;2022-12-26T06:00:44;99769.91;;;10.14;59.80
68656;BME280;55638;51.122;13.606;2022-12-26T06:02:16;99769.06;;;10.13;59.68
68656;BME280;55638;51.122;13.606;2022-12-26T06:03:49;99781.72;;;10.13;59.51
68656;BME280;55638;51.122;13.606;2022-12-26T06:05:21;99772.47;;;10.15;59.66
68656;BME280;55638;51.122;13.606;2022-12-26T06:06:53;99773.31;;;10.16;59.60
68656;BME280;55638;51.122;13.606;2022-12-26T06:08:28;99765.34;;;10.14;59.53
68656;BME280;55638;51.122;13.606;2022-12-26T06:09:59;99767.94;;;10.16;59.61
68656;BME280;55638;51.122;13.606;2022-12-26T06:11:31;99771.47;;;10.16;59.72
68656;BME280;55638;51.122;13.606;2022-12-26T06:13:03;99765.06;;;10.18;59.63
68656;BME280;55638;51.122;13.606;2022-12-26T06:14:34;99769.63;;;10.17;59.37
68656;BME280;55638;51.122;13.606;2022-12-26T06:16:09;99769.50;;;10.19;59.41
68656;BME280;55638;51.122;13.606;2022-12-26T06:17:41;99750.59;;;10.19;59.41
68656;BME280;55638;51.122;13.606;2022-12-26T06:19:13;99752.47;;;10.18;59.33
68656;BME280;55638;51.122;13.606;2022-12-26T06:20:44;99764.94;;;10.19;59.50
68656;BME280;55638;51.122;13.606;2022-12-26T06:22:16;99753.31;;;10.19;59.36
68656;BME280;55638;51.122;13.606;2022-12-26T06:23:48;99743.34;;;10.19;59.64
68656;BME280;55638;51.122;13.606;2022-12-26T06:25:20;99744.22;;;10.20;59.49
68656;BME280;55638;51.122;13.606;2022-12-26T06:26:52;99736.97;;;10.20;59.38
68656;BME280;55638;51.122;13.606;2022-12-26T06:28:24;99749.31;;;10.23;59.41
68656;BME280;55638;51.122;13.606;2022-12-26T06:29:56;99749.31;;;10.23;59.44
68656;BME280;55638;51.122;13.606;2022-12-26T06:31:27;99755.56;;;10.23;59.48
68656;BME280;55638;51.122;13.606;2022-12-26T06:32:59;99747.34;;;10.25;59.41
68656;BME280;55638;51.122;13.606;2022-12-26T06:34:31;99754.13;;;10.29;59.37
68656;BME280;55638;51.122;13.606;2022-12-26T06:36:06;99764.38;;;10.25;59.04
68656;BME280;55638;51.122;13.606;2022-12-26T06:37:38;99769.63;;;10.27;59.33
68656;BME280;55638;51.122;13.606;2022-12-26T06:39:10;99766.91;;;10.27;59.35
68656;BME280;55638;51.122;13.606;2022-12-26T06:40:42;99764.22;;;10.27;59.37
68656;BME280;55638;51.122;13.606;2022-12-26T06:42:14;99765.06;;;10.27;59.49
68656;BME280;55638;51.122;13.606;2022-12-26T06:43:46;99776.16;;;10.24;59.19
68656;BME280;55638;51.122;13.606;2022-12-26T06:45:18;99765.34;;;10.24;59.32
68656;BME280;55638;51.122;13.606;2022-12-26T06:46:49;99771.47;;;10.26;59.33
68656;BME280;55638;51.122;13.606;2022-12-26T06:48:22;99784.25;;;10.24;59.13
68656;BME280;55638;51.122;13.606;2022-12-26T06:49:53;99782.53;;;10.23;59.38
68656;BME280;55638;51.122;13.606;2022-12-26T06:51:26;99798.91;;;10.22;59.33
68656;BME280;55638;51.122;13.606;2022-12-26T06:52:59;99788.94;;;10.22;59.41
68656;BME280;55638;51.122;13.606;2022-12-26T06:54:30;99796.19;;;10.22;59.23
68656;BME280;55638;51.122;13.606;2022-12-26T06:56:06;99782.84;;;10.20;58.87
68656;BME280;55638;51.122;13.606;2022-12-26T06:57:38;99795.47;;;10.20;59.30
68656;BME280;55638;51.122;13.606;2022-12-26T06:59:10;99793.78;;;10.19;59.00
68656;BME280;55638;51.122;13.606;2022-12-26T07:00:42;99801.88;;;10.19;59.09
68656;BME280;55638;51.122;13.606;2022-12-26T07:02:14;99800.16;;;10.18;59.01
68656;BME280;55638;51.122;13.606;2022-12-26T07:03:46;99804.00;;;10.15;58.91
68656;BME280;55638;51.122;13.606;2022-12-26T07:05:22;99812.25;;;10.13;58.94
68656;BME280;55638;51.122;13.606;2022-12-26T07:06:54;99809.81;;;10.10;59.03
68656;BME280;55638;51.122;13.606;2022-12-26T07:08:26;99811.66;;;10.10;58.79
68656;BME280;55638;51.122;13.606;2022-12-26T07:09:58;99817.34;;;10.07;58.97
68656;BME280;55638;51.122;13.606;2022-12-26T07:11:33;99812.41;;;10.02;58.59
68656;BME280;55638;51.122;13.606;2022-12-26T07:13:06;99813.38;;;10.01;58.95
68656;BME280;55638;51.122;13.606;2022-12-26T07:14:38;99817.34;;;9.97;59.03
68656;BME280;55638;51.122;13.606;2022-12-26T07:16:10;99812.22;;;9.94;58.90
68656;BME280;55638;51.122;13.606;2022-12-26T07:17:42;99820.47;;;9.92;59.06
68656;BME280;55638;51.122;13.606;2022-12-26T07:19:14;99826.72;;;9.93;58.97
68656;BME280;55638;51.122;13.606;2022-12-26T07:20:46;99826.16;;;9.89;59.07
68656;BME280;55638;51.122;13.606;2022-12-26T07:22:17;99830.53;;;9.90;59.16
68656;BME280;55638;51.122;13.606;2022-12-26T07:23:50;99828.84;;;9.89;59.31
68656;BME280;55638;51.122;13.606;2022-12-26T07:25:22;99831.66;;;9.88;59.23
68656;BME280;55638;51.122;13.606;2022-12-26T07:26:53;99826.56;;;9.85;59.20
68656;BME280;55638;51.122;13.606;2022-12-26T07:28:26;99817.78;;;9.83;59.16
68656;BME280;55638;51.122;13.606;2022-12-26T07:29:58;99821.44;;;9.82;59.29
68656;BME280;55638;51.122;13.606;2022-12-26T07:31:29;99820.75;;;9.80;59.22
68656;BME280;55638;51.122;13.606;2022-12-26T07:33:01;99829.13;;;9.77;59.02
68656;BME280;55638;51.122;13.606;2022-12-26T07:34:33;99822.03;;;9.76;59.16
68656;BME280;55638;51.122;13.606;2022-12-26T07:36:05;99823.84;;;9.75;59.22
68656;BME280;55638;51.122;13.606;2022-12-26T07:37:37;99840.19;;;9.74;59.44
68656;BME280;55638;51.122;13.606;2022-12-26T07:39:12;99827.69;;;9.73;59.22
68656;BME280;55638;51.122;13.606;2022-12-26T07:40:44;99816.91;;;9.73;59.33
68656;BME280;55638;51.122;13.606;2022-12-26T07:42:18;99828.66;;;9.72;59.07
68656;BME280;55638;51.122;13.606;2022-12-26T07:43:51;99834.78;;;9.74;59.27
68656;BME280;55638;51.122;13.606;2022-12-26T07:45:23;99828.81;;;9.70;59.47
68656;BME280;55638;51.122;13.606;2022-12-26T07:46:56;99830.53;;;9.71;59.49
68656;BME280;55638;51.122;13.606;2022-12-26T07:48:28;99831.38;;;9.72;59.44
68656;BME280;55638;51.122;13.606;2022-12-26T07:50:00;99837.88;;;9.69;59.48
68656;BME280;55638;51.122;13.606;2022-12-26T07:51:32;99836.06;;;9.69;59.57
68656;BME280;55638;51.122;13.606;2022-12-26T07:53:04;99837.03;;;9.68;59.62
68656;BME280;55638;51.122;13.606;2022-12-26T07:54:36;99846.97;;;9.68;59.56
68656;BME280;55638;51.122;13.606;2022-12-26T07:56:07;99836.19;;;9.68;59.58
68656;BME280;55638;51.122;13.606;2022-12-26T07:57:39;99842.31;;;9.70;59.81
68656;BME280;55638;51.122;13.606;2022-12-26T07:59:20;99835.91;;;9.71;59.88
68656;BME280;55638;51.122;13.606;2022-12-26T08:00:52;99835.78;;;9.73;59.90
68656;BME280;55638;51.122;13.606;2022-12-26T08:02:23;99841.19;;;9.73;59.77
68656;BME280;55638;51.122;13.606;2022-12-26T08:03:56;99840.19;;;9.74;59.75
68656;BME280;55638;51.122;13.606;2022-12-26T08:05:27;99840.19;;;9.74;59.01
68656;BME280;55638;51.122;13.606;2022-12-26T08:06:59;99835.63;;;9.74;59.67
68656;BME280;55638;51.122;13.606;2022-12-26T08:08:31;99830.13;;;9.76;59.79
68656;BME280;55638;51.122;13.606;2022-12-26T08:10:03;99831.53;;;9.80;59.92
68656;BME280;55638;51.122;13.606;2022-12-26T08:11:35;99828.84;;;9.80;59.82
68656;BME280;55638;51.122;13.606;2022-12-26T08:13:07;99835.81;;;9.82;59.98
68656;BME280;55638;51.122;13.606;2022-12-26T08:14:39;99838.22;;;9.85;59.82
68656;BME280;55638;51.122;13.606;2022-12-26T08:16:13;99850.56;;;9.88;60.09
68656;BME280;55638;51.122;13.606;2022-12-26T08:17:45;99852.84;;;9.92;60.16
68656;BME280;55638;51.122;13.606;2022-12-26T08:19:17;99855.28;;;9.96;60.28
68656;BME280;55638;51.122;13.606;2022-12-26T08:20:49;99855.69;;;10.01;60.38
68656;BME280;55638;51.122;13.606;2022-12-26T08:22:21;99859.69;;;10.06;60.30
68656;BME280;55638;51.122;13.606;2022-12-26T08:23:52;99864.78;;;10.09;60.12
68656;BME280;55638;51.122;13.606;2022-12-26T08:25:24;99876.88;;;10.15;60.13
68656;BME280;55638;51.122;13.606;2022-12-26T08:26:56;99866.50;;;10.20;60.01
68656;BME280;55638;51.122;13.606;2022-12-26T08:28:28;99873.19;;;10.26;59.88
68656;BME280;55638;51.122;13.606;2022-12-26T08:29:59;99871.88;;;10.30;59.80
68656;BME280;55638;51.122;13.606;2022-12-26T08:31:31;99862.38;;;10.35;59.82
68656;BME280;55638;51.122;13.606;2022-12-26T08:33:03;99855.00;;;10.37;59.63
68656;BME280;55638;51.122;13.606;2022-12-26T08:34:35;99860.97;;;10.41;59.44
68656;BME280;55638;51.122;13.606;2022-12-26T08:36:09;99856.97;;;10.45;59.37
68656;BME280;55638;51.122;13.606;2022-12-26T08:37:41;99870.19;;;10.48;59.52
68656;BME280;55638;51.122;13.606;2022-12-26T08:39:12;99867.03;;;10.53;59.39
68656;BME280;55638;51.122;13.606;2022-12-26T08:40:52;99855.28;;;10.54;58.75
68656;BME280;55638;51.122;13.606;2022-12-26T08:42:26;99853.00;;;10.59;59.36
68656;BME280;55638;51.122;13.606;2022-12-26T08:43:59;99853.56;;;10.62;59.33
68656;BME280;55638;51.122;13.606;2022-12-26T08:46:01;99855.41;;;10.62;58.73
68656;BME280;55638;51.122;13.606;2022-12-26T08:47:34;99855.97;;;10.66;58.92
68656;BME280;55638;51.122;13.606;2022-12-26T08:49:05;99842.19;;;10.69;59.07
68656;BME280;55638;51.122;13.606;2022-12-26T08:50:37;99866.50;;;10.69;58.74
68656;BME280;55638;51.122;13.606;2022-12-26T08:52:12;99851.13;;;10.69;58.86
68656;BME280;55638;51.122;13.606;2022-12-26T08:53:44;99864.34;;;10.72;58.90
68656;BME280;55638;51.122;13.606;2022-12-26T08:55:17;99871.16;;;10.76;59.01
68656;BME280;55638;51.122;13.606;2022-12-26T08:56:48;99871.03;;;10.78;59.08
68656;BME280;55638;51.122;13.606;2022-12-26T08:58:20;99864.50;;;10.80;58.92
68656;BME280;55638;51.122;13.606;2022-12-26T08:59:52;99874.28;;;10.81;58.69
68656;BME280;55638;51.122;13.606;2022-12-26T09:01:26;99875.84;;;10.84;58.64
68656;BME280;55638;51.122;13.606;2022-12-26T09:02:58;99864.75;;;10.87;58.83
68656;BME280;55638;51.122;13.606;2022-12-26T09:04:30;99847.41;;;10.90;58.82
68656;BME280;55638;51.122;13.606;2022-12-26T09:06:03;99846.97;;;10.94;58.83
68656;BME280;55638;51.122;13.606;2022-12-26T09:07:37;99841.25;;;10.97;58.70
68656;BME280;55638;51.122;13.606;2022-12-26T09:09:10;99855.19;;;11.02;58.80
68656;BME280;55638;51.122;13.606;2022-12-26T09:10:42;99851.19;;;11.06;58.78
68656;BME280;55638;51.122;13.606;2022-12-26T09:12:14;99851.59;;;11.12;58.77
68656;BME280;55638;51.122;13.606;2022-12-26T09:13:46;99861.13;;;11.16;58.61